KJVL/JVL METAR and TAF weather

Enter ICAO airport designator
Station Type Date Time Source
KJVL METAR 2021/07/28 18:45 UTC NOAA

KJVL 281845Z VRB03KT 6SM HZ SCT021 BKN150 29/23 A3001


Station Type Date Time Source
KJVL Decoded METAR 2021/07/28 18:45 UTC NOAA

Janesville / Rock County, WI, United States (KJVL) 42-37N 089-02W
Jul 28, 2021 - 02:45 PM EDT / 2021.07.28 1845 UTC
Wind: Variable at 3 MPH (3 KT):0
Visibility: 6 mile(s):0
Sky conditions: mostly cloudy
Weather: haze
Temperature: 84 F (29 C)
Dew Point: 73 F (23 C)
Relative Humidity: 70%
Pressure (altimeter): 30.01 in. Hg (1016 hPa)
ob: KJVL 281845Z VRB03KT 6SM HZ SCT021 BKN150 29/23 A3001
cycle: 19

Station Type Date Time Source
KJVL TAF 2021/07/28 18:27 UTC NOAA

TAF KJVL 281724Z 2818/2918 22006KT P6SM SCT090 BKN250
FM290400 21009KT P6SM VCTS BKN180CB
FM290800 13003KT P6SM VCTS BKN100CB WS020/26035KT
FM290900 00000KT P6SM BKN090 WS020/27040KT
FM291200 36008KT P6SM BKN150
FM291700 35012KT P6SM SCT030

Example: see airport list